Time;durP1;ratioP1;P1;durP2;ratioP2;P2;SDS_P1;SDS_P2;PMS_P1;PMS_P2;Temp;Humidity;BMP_temperature;BMP_pressure;BME280_temperature;BME280_humidity;BME280_pressure;Samples;Min_cycle;Max_cycle;Signal;HPM_P1;HPM_P2
2022/11/22 00:00:45;;;;;;;21.72;7.39;;;;;;;12.28;93.92;100015.93;467701;112;923001;-76
2022/11/22 00:01:48;;;;;;;19.67;7.23;;;;;;;12.27;94.02;100017.83;463799;114;922980;-75
2022/11/22 00:02:51;;;;;;;19.24;7.44;;;;;;;12.26;93.90;100015.33;459094;114;922506;-77
2022/11/22 00:03:54;;;;;;;27.21;8.50;;;;;;;12.25;93.94;100008.19;464080;114;922472;-76
2022/11/22 00:04:57;;;;;;;17.27;7.11;;;;;;;12.25;94.05;100013.66;464003;114;922955;-75
2022/11/22 00:06:00;;;;;;;22.22;8.11;;;;;;;12.24;94.02;100007.36;463030;114;922504;-75
2022/11/22 00:07:03;;;;;;;17.97;6.45;;;;;;;12.24;94.00;100009.29;466681;112;922521;-76
2022/11/22 00:08:06;;;;;;;20.55;7.79;;;;;;;12.23;94.04;100005.72;463769;113;922963;-76
2022/11/22 00:09:09;;;;;;;18.44;6.75;;;;;;;12.24;94.02;100009.29;464754;114;922420;-74
2022/11/22 00:10:14;;;;;;;20.25;7.59;;;;;;;12.23;94.01;100004.89;462378;114;922578;-75
2022/11/22 00:11:17;;;;;;;26.12;7.32;;;;;;;12.23;94.01;100010.35;463503;114;922589;-75
2022/11/22 00:12:20;;;;;;;16.21;7.22;;;;;;;12.23;94.01;100013.92;463589;114;922781;-76
2022/11/22 00:13:23;;;;;;;21.76;7.55;;;;;;;12.22;94.05;100011.42;472406;112;922843;-77
2022/11/22 00:14:26;;;;;;;21.06;6.85;;;;;;;12.22;93.94;100017.72;472542;112;922709;-75
2022/11/22 00:15:29;;;;;;;17.66;6.73;;;;;;;12.23;94.12;100013.09;463936;114;922661;-74
2022/11/22 00:16:33;;;;;;;19.91;7.61;;;;;;;12.25;94.03;100010.92;460478;114;923075;-74
2022/11/22 00:17:36;;;;;;;19.21;7.21;;;;;;;12.25;93.86;100010.92;455930;115;922458;-75
2022/11/22 00:18:39;;;;;;;21.91;7.78;;;;;;;12.25;93.86;100010.92;477168;110;923126;-75
2022/11/22 00:19:43;;;;;;;14.24;6.50;;;;;;;12.25;94.02;100014.48;473740;110;922891;-76
2022/11/22 00:20:46;;;;;;;20.49;7.19;;;;;;;12.25;94.00;100016.39;475168;110;922494;-75
2022/11/22 00:21:49;;;;;;;22.71;7.13;;;;;;;12.24;93.91;100010.09;471427;112;922512;-75
2022/11/22 00:22:52;;;;;;;15.26;7.19;;;;;;;12.25;93.91;100008.19;471400;110;922538;-74
2022/11/22 00:23:56;;;;;;;24.01;7.10;;;;;;;12.26;93.89;100007.13;471422;112;922534;-76
2022/11/22 00:25:00;;;;;;;19.05;6.77;;;;;;;12.26;93.82;100012.59;471084;112;922954;-75
2022/11/22 00:26:03;;;;;;;19.22;7.34;;;;;;;12.25;93.92;100009.02;472534;112;922420;-77
2022/11/22 00:27:05;;;;;;;19.87;6.66;;;;;;;12.26;93.85;100007.95;474308;110;922411;-75
2022/11/22 00:28:09;;;;;;;23.84;7.26;;;;;;;12.27;93.90;100011.52;475475;110;922794;-75
2022/11/22 00:29:13;;;;;;;19.91;6.44;;;;;;;12.28;93.96;100007.73;478511;110;922579;-75
2022/11/22 00:30:16;;;;;;;22.34;7.12;;;;;;;12.29;93.98;100012.12;477805;110;922475;-75
2022/11/22 00:31:19;;;;;;;19.84;6.98;;;;;;;12.29;94.00;100010.23;475348;111;922454;-74
2022/11/22 00:32:22;;;;;;;20.20;7.14;;;;;;;12.32;93.92;100014.37;475824;111;922983;-75
2022/11/22 00:33:25;;;;;;;22.99;7.11;;;;;;;12.31;93.82;100010.80;472793;110;922546;-75
2022/11/22 00:34:28;;;;;;;18.09;6.87;;;;;;;12.32;93.90;100011.63;467153;112;922538;-75
2022/11/22 00:35:31;;;;;;;22.30;6.10;;;;;;;12.33;93.84;100010.57;467024;112;922471;-75
2022/11/22 00:36:34;;;;;;;19.41;6.96;;;;;;;12.34;93.81;100009.50;473243;111;923065;-75
2022/11/22 00:37:37;;;;;;;15.09;6.62;;;;;;;12.34;93.79;100009.50;473522;112;922751;-76
2022/11/22 00:38:40;;;;;;;20.16;6.57;;;;;;;12.34;93.68;100012.23;463228;114;922473;-76
2022/11/22 00:39:43;;;;;;;15.65;5.94;;;;;;;12.34;93.73;100013.08;472294;112;922530;-75
2022/11/22 00:40:46;;;;;;;25.01;6.76;;;;;;;12.34;93.63;100004.04;471005;112;922875;-75
2022/11/22 00:41:49;;;;;;;20.17;6.24;;;;;;;12.35;93.72;100009.24;472686;112;922673;-77
2022/11/22 00:42:52;;;;;;;22.29;5.97;;;;;;;12.35;93.70;100003.77;472870;112;922943;-75
2022/11/22 00:43:55;;;;;;;15.78;6.71;;;;;;;12.35;93.56;100005.70;473420;112;922508;-74
2022/11/22 00:44:58;;;;;;;15.71;6.35;;;;;;;12.35;93.50;100005.70;471169;112;922475;-76
2022/11/22 00:46:01;;;;;;;20.29;6.62;;;;;;;12.34;93.44;100002.14;473081;112;922535;-76
2022/11/22 00:47:03;;;;;;;22.01;6.83;;;;;;;12.33;93.48;100003.20;471288;112;922517;-75
2022/11/22 00:48:06;;;;;;;16.29;7.01;;;;;;;12.34;93.59;99998.57;473228;112;922873;-75
2022/11/22 00:49:09;;;;;;;16.63;6.73;;;;;;;12.34;93.57;100002.14;471994;112;922449;-77
2022/11/22 00:50:13;;;;;;;18.06;7.48;;;;;;;12.35;93.53;99997.50;472214;112;923038;-76
2022/11/22 00:51:16;;;;;;;24.65;6.63;;;;;;;12.36;93.55;100004.61;472643;112;922519;-75
2022/11/22 00:52:19;;;;;;;20.31;6.46;;;;;;;12.37;93.61;100007.11;472616;112;922975;-77
2022/11/22 00:53:22;;;;;;;19.99;7.71;;;;;;;12.39;93.57;100009.61;473291;112;922674;-74
2022/11/22 00:54:25;;;;;;;21.84;7.10;;;;;;;12.39;93.57;100002.25;471305;112;922471;-76
2022/11/22 00:55:28;;;;;;;17.15;7.02;;;;;;;12.40;93.52;99997.61;472795;112;922547;-74
2022/11/22 00:56:32;;;;;;;18.08;6.89;;;;;;;12.40;93.44;100001.18;475661;111;922456;-76
2022/11/22 00:57:35;;;;;;;23.52;6.79;;;;;;;12.41;93.41;100001.98;472312;111;922532;-76
2022/11/22 00:58:38;;;;;;;18.30;6.34;;;;;;;12.41;93.45;100000.08;472499;111;930274;-75
2022/11/22 00:59:41;;;;;;;17.96;7.21;;;;;;;12.42;93.43;99998.18;475433;111;922450;-76
2022/11/22 01:00:44;;;;;;;18.14;7.34;;;;;;;12.42;93.43;99989.98;472412;111;922999;-75
2022/11/22 01:01:47;;;;;;;18.31;7.04;;;;;;;12.43;93.42;99994.37;475337;111;922565;-75
2022/11/22 01:02:50;;;;;;;21.96;8.43;;;;;;;12.43;93.37;99991.64;476563;111;923646;-73
2022/11/22 01:03:53;;;;;;;17.45;6.78;;;;;;;12.43;93.33;99983.45;477285;111;922296;-74
2022/11/22 01:04:56;;;;;;;17.61;7.20;;;;;;;12.42;93.24;99999.02;477238;111;922273;-75
2022/11/22 01:05:59;;;;;;;25.42;7.59;;;;;;;12.43;93.23;99995.22;477296;111;922731;-75
2022/11/22 01:07:02;;;;;;;18.69;7.36;;;;;;;12.43;93.20;99991.64;474959;111;922780;-77
2022/11/22 01:08:06;;;;;;;23.68;7.57;;;;;;;12.44;93.17;99994.15;474225;111;923422;-75
2022/11/22 01:09:10;;;;;;;22.97;7.67;;;;;;;12.44;93.22;100002.34;472592;111;922963;-75
2022/11/22 01:10:13;;;;;;;22.94;7.79;;;;;;;12.45;93.25;100011.39;475074;111;922860;-76
2022/11/22 01:11:18;;;;;;;23.03;7.74;;;;;;;12.46;93.14;100023.96;473391;111;922233;-76
2022/11/22 01:12:21;;;;;;;19.08;7.25;;;;;;;12.45;93.04;100014.13;475179;111;922640;-76
2022/11/22 01:13:25;;;;;;;17.04;6.78;;;;;;;12.43;93.03;100003.42;476722;111;930308;-74
2022/11/22 01:14:27;;;;;;;19.28;7.44;;;;;;;12.43;92.82;99999.85;476541;111;922250;-76
2022/11/22 01:15:31;;;;;;;21.60;7.07;;;;;;;12.40;92.86;100009.38;475088;111;922345;-75
2022/11/22 01:16:34;;;;;;;20.24;6.96;;;;;;;12.40;92.77;100003.08;474304;111;922556;-77
2022/11/22 01:17:37;;;;;;;16.48;7.71;;;;;;;12.40;92.88;100003.08;466421;113;922398;-77
2022/11/22 01:18:41;;;;;;;21.96;7.81;;;;;;;12.38;92.79;99997.84;469947;112;922508;-76
2022/11/22 01:19:44;;;;;;;16.47;6.11;;;;;;;12.37;92.72;100001.64;465665;112;922814;-75
2022/11/22 01:20:47;;;;;;;20.06;6.78;;;;;;;12.37;92.60;100003.55;467535;112;930252;-76
2022/11/22 01:21:50;;;;;;;21.81;7.38;;;;;;;12.35;92.67;99998.30;467561;112;923036;-77
2022/11/22 01:22:53;;;;;;;21.41;6.54;;;;;;;12.36;92.67;99996.41;468199;112;922307;-75
2022/11/22 01:23:56;;;;;;;29.95;8.47;;;;;;;12.34;92.64;99996.67;465852;112;922797;-75
2022/11/22 01:24:59;;;;;;;20.44;6.67;;;;;;;12.34;92.70;100007.61;465930;112;922286;-75
2022/11/22 01:26:02;;;;;;;23.61;7.58;;;;;;;12.34;92.67;100010.34;468296;112;922424;-76
2022/11/22 01:27:05;;;;;;;14.78;6.33;;;;;;;12.35;92.76;100006.51;469761;112;923455;-77
2022/11/22 01:28:08;;;;;;;21.97;6.94;;;;;;;12.36;92.71;100010.08;465702;112;922580;-75
2022/11/22 01:29:11;;;;;;;18.53;6.64;;;;;;;12.36;92.73;100018.28;468920;112;922853;-78
2022/11/22 01:30:14;;;;;;;19.19;6.96;;;;;;;12.36;92.67;100008.17;467443;112;922661;-75
2022/11/22 01:31:17;;;;;;;23.26;7.45;;;;;;;12.36;92.68;100012.81;464403;112;922534;-76
2022/11/22 01:32:20;;;;;;;16.31;6.52;;;;;;;12.36;92.61;100010.08;472794;110;930245;-76
2022/11/22 01:33:23;;;;;;;17.50;6.42;;;;;;;12.36;92.59;100015.55;468869;110;922440;-75
2022/11/22 01:34:26;;;;;;;17.96;6.40;;;;;;;12.36;92.52;100016.37;465707;112;923038;-76
2022/11/22 01:35:29;;;;;;;15.79;6.89;;;;;;;12.36;92.60;100010.08;466868;111;922876;-76
2022/11/22 01:36:32;;;;;;;20.00;7.54;;;;;;;12.37;92.52;100019.95;473932;111;923267;-75
2022/11/22 01:37:35;;;;;;;20.29;6.18;;;;;;;12.36;92.59;100015.55;473838;111;923043;-74
2022/11/22 01:38:38;;;;;;;20.74;6.98;;;;;;;12.36;92.64;100013.64;473315;111;922377;-76
2022/11/22 01:39:40;;;;;;;14.84;6.22;;;;;;;12.37;92.54;100018.05;473142;111;923029;-74
2022/11/22 01:40:43;;;;;;;19.56;6.87;;;;;;;12.38;92.52;100016.14;473699;111;922495;-75
2022/11/22 01:41:46;;;;;;;17.15;6.54;;;;;;;12.38;92.48;100010.68;472798;111;922545;-76
2022/11/22 01:42:52;;;;;;;20.46;7.41;;;;;;;12.37;92.45;100015.31;473428;110;923124;-75
2022/11/22 01:43:55;;;;;;;20.20;7.25;;;;;;;12.37;92.39;100014.48;473936;111;922482;-76
2022/11/22 01:45:02;;;;;;;17.86;6.03;;;;;;;12.37;92.40;100011.74;473937;111;922446;-75
2022/11/22 01:46:08;;;;;;;20.47;6.75;;;;;;;12.37;92.35;100009.84;469112;111;922835;-75
2022/11/22 01:47:14;;;;;;;19.71;7.13;;;;;;;12.36;92.33;100005.44;472431;111;922343;-76
2022/11/22 01:48:26;;;;;;;20.01;7.02;;;;;;;12.36;92.40;100001.88;461909;114;922363;-75
2022/11/22 01:49:32;;;;;;;25.67;6.83;;;;;;;12.35;92.34;100009.24;473728;111;922451;-76
2022/11/22 01:50:38;;;;;;;14.97;6.37;;;;;;;12.36;92.29;100015.55;473771;111;922540;-74
2022/11/22 01:51:45;;;;;;;14.99;6.27;;;;;;;12.36;92.25;100015.55;473265;111;922510;-74
2022/11/22 01:52:48;;;;;;;16.29;6.82;;;;;;;12.34;92.24;99999.41;471103;112;923205;-74
2022/11/22 01:53:53;;;;;;;15.69;6.82;;;;;;;12.35;92.24;100002.97;471745;112;923040;-75
2022/11/22 01:55:00;;;;;;;15.37;5.93;;;;;;;12.34;92.23;100002.14;470560;112;922544;-75
2022/11/22 01:56:07;;;;;;;20.24;6.06;;;;;;;12.33;92.13;99999.64;471098;112;922486;-77
2022/11/22 01:57:14;;;;;;;16.70;6.77;;;;;;;12.33;92.29;100002.38;471980;112;922433;-74
2022/11/22 01:58:19;;;;;;;13.47;5.74;;;;;;;12.34;92.25;100001.30;471278;112;922514;-77
2022/11/22 01:59:25;;;;;;;16.41;5.84;;;;;;;12.34;92.32;99999.41;470277;112;922785;-75
2022/11/22 02:00:28;;;;;;;16.73;5.78;;;;;;;12.36;92.32;100010.08;471177;112;923201;-75
2022/11/22 02:01:31;;;;;;;10.18;5.68;;;;;;;12.35;92.32;100001.04;460136;114;923129;-75
2022/11/22 02:02:36;;;;;;;18.36;6.42;;;;;;;12.36;92.36;99997.24;462656;111;922523;-75
2022/11/22 02:03:42;;;;;;;13.90;5.19;;;;;;;12.38;92.22;99991.54;471064;112;922752;-75
2022/11/22 02:04:50;;;;;;;11.98;5.24;;;;;;;12.38;92.14;99994.27;470224;112;923030;-76
2022/11/22 02:05:53;;;;;;;12.17;5.18;;;;;;;12.38;92.22;99999.74;471329;112;922620;-75
2022/11/22 02:07:08;;;;;;;15.59;5.36;;;;;;;12.38;92.24;99992.38;472727;112;922716;-76
2022/11/22 02:08:15;;;;;;;10.46;5.28;;;;;;;12.40;92.36;99994.88;470352;112;922668;-75
2022/11/22 02:09:19;;;;;;;13.79;5.18;;;;;;;12.39;92.37;99991.31;471431;112;922871;-75
2022/11/22 02:10:26;;;;;;;18.25;5.57;;;;;;;12.40;92.21;100006.65;471784;112;922558;-76
2022/11/22 02:11:29;;;;;;;14.31;5.16;;;;;;;12.41;92.17;99993.78;470312;112;922487;-76
2022/11/22 02:12:35;;;;;;;18.38;5.13;;;;;;;12.41;92.10;99991.05;468986;112;922532;-75
2022/11/22 02:13:41;;;;;;;18.53;5.21;;;;;;;12.40;92.12;99979.30;470351;112;922755;-74
2022/11/22 02:14:46;;;;;;;14.19;5.03;;;;;;;12.41;92.00;99988.31;470281;112;922566;-76
2022/11/22 02:15:50;;;;;;;12.95;5.25;;;;;;;12.41;92.03;99985.58;471178;112;922911;-75
2022/11/22 02:16:54;;;;;;;12.09;5.68;;;;;;;12.40;91.94;99987.51;470207;112;922598;-75
2022/11/22 02:17:57;;;;;;;12.94;4.89;;;;;;;12.40;91.88;99989.41;466282;113;922469;-75
2022/11/22 02:19:00;;;;;;;11.54;4.55;;;;;;;12.40;91.91;99987.51;460071;114;923037;-75
2022/11/22 02:20:05;;;;;;;11.69;4.58;;;;;;;12.40;91.81;99986.67;468624;112;923042;-76
2022/11/22 02:21:08;;;;;;;13.58;5.35;;;;;;;12.40;91.83;99986.67;465297;113;922470;-76
2022/11/22 02:22:21;;;;;;;12.22;4.97;;;;;;;12.41;91.86;99991.05;469540;112;922807;-76
2022/11/22 02:23:42;;;;;;;13.35;4.34;;;;;;;12.41;91.83;99985.58;453918;116;922870;-76
2022/11/22 02:24:52;;;;;;;14.03;4.69;;;;;;;12.40;91.76;99984.78;467732;112;922539;-75
2022/11/22 02:25:58;;;;;;;16.99;5.43;;;;;;;12.41;91.76;99985.58;469774;112;922542;-74
2022/11/22 02:27:01;;;;;;;11.64;4.21;;;;;;;12.41;91.83;99978.20;465915;112;922778;-75
2022/11/22 02:28:06;;;;;;;12.95;4.69;;;;;;;12.43;91.88;99980.70;467718;112;922455;-75
2022/11/22 02:29:09;;;;;;;13.61;4.55;;;;;;;12.43;91.93;99977.98;468598;112;923208;-75
2022/11/22 02:30:13;;;;;;;12.95;3.84;;;;;;;12.43;91.93;99978.81;469601;112;922497;-75
2022/11/22 02:31:41;;;;;;;11.33;4.34;;;;;;;12.44;91.81;99977.74;468346;112;922574;-75
2022/11/22 02:32:44;;;;;;;12.39;3.78;;;;;;;12.45;91.77;99978.58;470009;112;922542;-75
2022/11/22 02:33:47;;;;;;;14.32;3.51;;;;;;;12.45;91.80;99981.31;462323;113;922911;-75
2022/11/22 02:34:50;;;;;;;7.26;4.23;;;;;;;12.45;91.72;99978.58;473202;112;922416;-77
2022/11/22 02:35:54;;;;;;;12.38;3.97;;;;;;;12.45;91.74;99965.73;476364;110;922989;-75
2022/11/22 02:36:57;;;;;;;9.79;3.40;;;;;;;12.46;91.70;99966.55;478104;110;922482;-73
2022/11/22 02:38:03;;;;;;;16.12;4.36;;;;;;;12.45;91.71;99968.47;471607;110;930547;-74
2022/11/22 02:39:08;;;;;;;9.34;3.22;;;;;;;12.47;91.83;99963.58;471274;110;922617;-75
2022/11/22 02:40:14;;;;;;;11.41;4.13;;;;;;;12.47;91.68;99963.58;464193;112;922498;-75
2022/11/22 02:41:17;;;;;;;8.47;3.40;;;;;;;12.48;91.66;99964.41;466272;112;922888;-77
2022/11/22 02:42:20;;;;;;;13.76;3.98;;;;;;;12.49;91.76;99966.08;473980;110;923020;-75
2022/11/22 02:43:36;;;;;;;18.39;4.51;;;;;;;12.50;91.75;99962.27;475568;110;923405;-74
2022/11/22 02:44:40;;;;;;;9.19;3.25;;;;;;;12.50;91.72;99968.58;472849;110;922477;-75
2022/11/22 02:45:43;;;;;;;9.94;3.94;;;;;;;12.52;91.68;99960.11;479324;110;922486;-74
2022/11/22 02:46:52;;;;;;;10.10;4.04;;;;;;;12.52;91.55;99960.94;479346;110;930515;-77
2022/11/22 02:48:16;;;;;;;9.12;3.86;;;;;;;12.53;91.48;99953.57;471985;110;922615;-75
2022/11/22 02:49:21;;;;;;;11.12;4.33;;;;;;;12.53;91.47;99953.57;472556;112;923007;-76
2022/11/22 02:50:24;;;;;;;15.01;3.71;;;;;;;12.53;91.47;99950.84;468584;112;922920;-75
2022/11/22 02:51:27;;;;;;;7.31;3.64;;;;;;;12.53;91.51;99948.94;465019;112;923114;-76
2022/11/22 02:52:30;;;;;;;15.18;4.14;;;;;;;12.53;91.54;99946.20;470908;112;923009;-76
2022/11/22 02:53:33;;;;;;;12.95;4.16;;;;;;;12.54;91.49;99942.39;471268;112;922797;-76
2022/11/22 02:54:36;;;;;;;9.58;4.04;;;;;;;12.55;91.38;99945.97;470722;112;923136;-74
2022/11/22 02:55:39;;;;;;;11.77;3.09;;;;;;;12.54;91.49;99934.19;465831;112;922847;-75
2022/11/22 02:56:42;;;;;;;7.77;3.51;;;;;;;12.56;91.47;99933.13;468478;112;922519;-76
2022/11/22 02:57:45;;;;;;;12.99;4.02;;;;;;;12.56;91.46;99931.23;472344;112;922498;-75
2022/11/22 02:58:47;;;;;;;11.95;3.26;;;;;;;12.56;91.42;99917.55;471884;112;922949;-74
2022/11/22 02:59:50;;;;;;;8.71;3.71;;;;;;;12.58;91.46;99928.22;469880;112;923085;-75
2022/11/22 03:00:53;;;;;;;11.34;3.84;;;;;;;12.59;91.36;99925.25;469464;112;930526;-75
2022/11/22 03:01:56;;;;;;;12.91;4.24;;;;;;;12.58;91.20;99923.59;470475;112;923277;-74
2022/11/22 03:03:01;;;;;;;10.73;4.28;;;;;;;12.58;91.16;99923.59;470505;112;922454;-74
2022/11/22 03:04:04;;;;;;;11.12;3.43;;;;;;;12.58;91.13;99928.22;470969;112;923007;-74
2022/11/22 03:05:07;;;;;;;9.95;4.03;;;;;;;12.58;91.11;99918.12;464334;112;922619;-75
2022/11/22 03:06:11;;;;;;;11.95;4.57;;;;;;;12.58;91.02;99925.48;463316;112;922911;-76
2022/11/22 03:07:16;;;;;;;15.10;4.05;;;;;;;12.57;91.01;99932.86;471163;110;922496;-76
2022/11/22 03:08:19;;;;;;;10.71;3.57;;;;;;;12.57;91.06;99916.45;470278;112;923026;-75
2022/11/22 03:09:23;;;;;;;13.85;4.01;;;;;;;12.58;90.97;99928.22;471417;112;923134;-75
2022/11/22 03:10:26;;;;;;;10.09;3.53;;;;;;;12.58;91.02;99925.48;470366;112;923075;-75
2022/11/22 03:11:29;;;;;;;10.86;3.74;;;;;;;12.59;90.88;99927.16;465146;112;922527;-74
2022/11/22 03:12:32;;;;;;;17.26;4.15;;;;;;;12.58;90.88;99933.69;468708;112;923130;-76
2022/11/22 03:13:35;;;;;;;13.61;3.75;;;;;;;12.59;90.91;99925.25;463338;112;922886;-76
2022/11/22 03:14:38;;;;;;;13.76;3.70;;;;;;;12.59;90.84;99925.25;469675;112;923022;-74
2022/11/22 03:15:40;;;;;;;11.66;4.46;;;;;;;12.60;90.89;99918.72;470449;112;923228;-75
2022/11/22 03:16:45;;;;;;;13.32;4.10;;;;;;;12.60;90.84;99926.92;468507;112;923229;-75
2022/11/22 03:17:48;;;;;;;11.45;4.25;;;;;;;12.60;90.70;99920.62;469896;112;922504;-74
2022/11/22 03:18:51;;;;;;;13.23;3.56;;;;;;;12.58;90.71;99918.12;470116;112;922480;-75
2022/11/22 03:19:53;;;;;;;14.48;4.29;;;;;;;12.57;90.67;99916.45;468803;112;922597;-75
2022/11/22 03:21:06;;;;;;;10.53;4.43;;;;;;;12.57;90.65;99915.66;464022;112;922581;-75
2022/11/22 03:22:09;;;;;;;11.72;4.43;;;;;;;12.56;90.57;99931.23;469717;112;923899;-75
2022/11/22 03:23:14;;;;;;;12.49;4.72;;;;;;;12.54;90.58;99928.73;463217;112;922937;-75
2022/11/22 03:24:19;;;;;;;11.25;3.51;;;;;;;12.55;90.68;99926.83;469230;112;922892;-75
2022/11/22 03:25:21;;;;;;;10.92;4.68;;;;;;;12.54;90.66;99927.89;468411;112;922501;-75
2022/11/22 03:26:25;;;;;;;8.88;3.86;;;;;;;12.54;90.57;99927.89;464852;112;922493;-75
2022/11/22 03:27:28;;;;;;;11.99;4.34;;;;;;;12.54;90.61;99931.45;458575;114;922566;-74
2022/11/22 03:28:31;;;;;;;20.91;4.78;;;;;;;12.53;90.59;99931.69;459177;113;922584;-76
2022/11/22 03:29:34;;;;;;;12.39;4.98;;;;;;;12.53;90.47;99928.96;453827;115;923000;-75
2022/11/22 03:30:41;;;;;;;16.64;4.12;;;;;;;12.53;90.49;99926.23;466005;111;923046;-75
2022/11/22 03:31:44;;;;;;;7.97;4.07;;;;;;;12.52;90.42;99927.30;473334;111;922515;-73
2022/11/22 03:32:47;;;;;;;13.14;4.76;;;;;;;12.52;90.52;99930.86;474278;110;923035;-75
2022/11/22 03:33:50;;;;;;;11.31;3.96;;;;;;;12.53;90.56;99923.48;477608;110;922658;-74
2022/11/22 03:34:53;;;;;;;13.59;4.09;;;;;;;12.53;90.47;99931.69;478411;110;922453;-75
2022/11/22 03:35:56;;;;;;;12.07;5.06;;;;;;;12.53;90.44;99926.23;472719;110;923018;-75
2022/11/22 03:36:59;;;;;;;12.64;4.06;;;;;;;12.54;90.44;99922.42;468746;112;922755;-75
2022/11/22 05:25:47;;;;;;;12.99;6.60;;;;;;;11.35;96.87;99931.23;523860;101;946979;-74
2022/11/22 05:26:50;;;;;;;12.46;7.14;;;;;;;11.30;96.62;99937.40;513425;103;922787;-74
2022/11/22 05:27:54;;;;;;;10.82;6.47;;;;;;;11.37;96.55;99937.27;513432;103;922918;-75
2022/11/22 05:28:57;;;;;;;10.87;6.57;;;;;;;11.42;96.36;99934.66;513380;103;922848;-79
2022/11/22 05:30:00;;;;;;;10.33;6.62;;;;;;;11.46;96.31;99942.16;513273;103;922408;-78
2022/11/22 05:31:08;;;;;;;11.22;6.31;;;;;;;11.51;96.16;99941.45;513356;103;930489;-79
2022/11/22 05:32:11;;;;;;;14.22;7.39;;;;;;;11.54;96.09;99933.60;512195;103;922566;-79
2022/11/22 05:33:14;;;;;;;13.84;6.49;;;;;;;11.60;96.01;99937.28;503666;103;922706;-79
2022/11/22 05:34:17;;;;;;;11.74;6.98;;;;;;;11.63;95.96;99936.83;503627;105;922470;-75
2022/11/22 05:35:20;;;;;;;11.58;7.56;;;;;;;11.68;95.93;99939.67;503552;104;922942;-75
2022/11/22 05:36:23;;;;;;;12.73;6.22;;;;;;;11.72;95.94;99935.39;503688;105;922453;-75
2022/11/22 05:37:27;;;;;;;9.08;6.19;;;;;;;11.76;95.79;99936.60;503589;105;923193;-75
2022/11/22 05:38:29;;;;;;;15.24;6.97;;;;;;;11.79;95.71;99941.61;503645;104;922510;-76
2022/11/22 05:39:32;;;;;;;12.38;6.09;;;;;;;11.84;95.66;99936.26;503612;105;922468;-74
2022/11/22 05:40:35;;;;;;;16.02;7.17;;;;;;;11.87;95.64;99938.50;503653;105;922551;-80
2022/11/22 05:41:38;;;;;;;9.53;6.65;;;;;;;11.91;95.62;99936.14;503608;104;922944;-81
2022/11/22 05:42:43;;;;;;;10.58;6.37;;;;;;;11.94;95.53;99932.91;500911;105;922507;-79
2022/11/22 05:43:45;;;;;;;8.36;5.89;;;;;;;11.97;95.45;99935.98;503556;104;930509;-79
2022/11/22 05:44:48;;;;;;;11.54;6.41;;;;;;;11.99;95.27;99942.05;503623;104;922527;-79
2022/11/22 05:45:51;;;;;;;9.39;7.22;;;;;;;12.01;95.21;99944.55;503645;104;922480;-79
2022/11/22 05:46:54;;;;;;;9.41;7.19;;;;;;;12.04;95.12;99939.43;503699;104;922454;-79
2022/11/22 05:47:57;;;;;;;16.07;6.85;;;;;;;12.07;95.16;99935.41;503752;105;922317;-78
2022/11/22 05:49:00;;;;;;;12.57;7.51;;;;;;;12.09;95.05;99936.80;503725;104;922434;-79
2022/11/22 05:50:03;;;;;;;11.61;6.94;;;;;;;12.11;95.00;99929.21;503601;104;922813;-78
2022/11/22 05:51:08;;;;;;;11.01;6.70;;;;;;;12.14;95.02;99927.88;503689;104;922603;-78
2022/11/22 05:52:11;;;;;;;9.14;7.03;;;;;;;12.17;94.97;99934.78;503570;104;922806;-79
2022/11/22 05:53:14;;;;;;;13.03;7.66;;;;;;;12.19;94.90;99927.98;503692;105;922436;-78
2022/11/22 05:54:17;;;;;;;18.93;7.61;;;;;;;12.23;94.84;99936.55;503704;104;922910;-80
2022/11/22 05:55:20;;;;;;;9.91;7.59;;;;;;;12.25;94.77;99934.39;503992;104;922943;-79
2022/11/22 05:56:23;;;;;;;11.96;7.07;;;;;;;12.27;94.72;99929.52;504301;105;922504;-77
2022/11/22 05:57:27;;;;;;;15.13;7.81;;;;;;;12.29;94.64;99927.39;503988;105;922937;-77
2022/11/22 05:58:30;;;;;;;13.33;7.45;;;;;;;12.32;94.57;99918.69;503783;104;922489;-80
2022/11/22 05:59:33;;;;;;;11.83;7.24;;;;;;;12.34;94.62;99927.49;503770;104;922657;-80
2022/11/22 06:00:35;;;;;;;10.25;7.08;;;;;;;12.35;94.44;99923.70;503704;104;922336;-77
2022/11/22 06:01:39;;;;;;;14.74;8.21;;;;;;;12.37;94.38;99932.46;503779;104;922895;-79
2022/11/22 06:02:41;;;;;;;12.21;6.69;;;;;;;12.38;94.34;99934.96;503791;105;922894;-78
2022/11/22 06:03:45;;;;;;;9.23;7.20;;;;;;;12.41;94.31;99933.63;503754;104;922400;-80
2022/11/22 06:04:48;;;;;;;14.61;8.01;;;;;;;12.42;94.24;99935.30;503693;104;923013;-79
2022/11/22 06:05:51;;;;;;;12.68;7.41;;;;;;;12.44;94.19;99933.16;503746;104;922948;-80
2022/11/22 06:06:54;;;;;;;13.14;7.62;;;;;;;12.44;94.02;99936.73;503753;104;922885;-81
2022/11/22 06:07:59;;;;;;;13.09;7.39;;;;;;;12.46;94.05;99934.56;503749;104;922963;-80
2022/11/22 06:09:02;;;;;;;13.22;7.04;;;;;;;12.47;93.99;99938.13;503574;104;922992;-80
2022/11/22 06:10:06;;;;;;;11.54;7.32;;;;;;;12.49;93.94;99936.00;503555;104;930940;-80
2022/11/22 06:11:16;;;;;;;12.44;7.68;;;;;;;12.50;93.80;99937.66;503715;104;922461;-80
2022/11/22 06:12:19;;;;;;;9.21;7.11;;;;;;;12.52;93.78;99935.50;503490;105;930414;-79
2022/11/22 06:13:22;;;;;;;13.40;7.68;;;;;;;12.53;93.84;99935.27;503792;105;922569;-79
2022/11/22 06:14:25;;;;;;;11.93;8.10;;;;;;;12.55;93.77;99929.56;503743;104;922876;-79
2022/11/22 06:15:29;;;;;;;13.59;8.07;;;;;;;12.56;93.73;99931.23;503699;104;922371;-80
2022/11/22 06:16:32;;;;;;;12.35;7.56;;;;;;;12.59;93.63;99936.19;503700;105;922280;-79
2022/11/22 06:17:35;;;;;;;14.06;8.01;;;;;;;12.58;93.55;99934.53;503816;105;922833;-81
2022/11/22 06:18:38;;;;;;;12.60;7.79;;;;;;;12.60;93.46;99937.03;503741;105;922413;-79
2022/11/22 06:19:41;;;;;;;14.73;7.31;;;;;;;12.61;93.41;99945.00;503681;105;922903;-80
2022/11/22 06:20:44;;;;;;;13.88;8.26;;;;;;;12.62;93.43;99949.40;503708;105;922501;-79
2022/11/22 06:21:47;;;;;;;12.00;7.57;;;;;;;12.63;93.34;99948.30;503782;105;922429;-78
2022/11/22 06:22:51;;;;;;;10.44;8.14;;;;;;;12.63;93.29;99945.56;503755;105;922937;-80
2022/11/22 06:23:54;;;;;;;11.90;7.89;;;;;;;12.64;93.28;99955.44;503653;105;922495;-81
2022/11/22 06:24:57;;;;;;;12.13;8.24;;;;;;;12.65;93.11;99954.37;503615;105;922939;-79
2022/11/22 06:26:09;;;;;;;13.19;7.51;;;;;;;12.66;93.13;99950.56;503624;105;930501;-81
2022/11/22 06:27:12;;;;;;;14.40;7.93;;;;;;;12.68;93.16;99953.87;502951;105;922418;-80
2022/11/22 06:28:15;;;;;;;13.62;8.56;;;;;;;12.69;93.01;99946.49;503728;105;922470;-79
2022/11/22 06:29:18;;;;;;;11.58;8.29;;;;;;;12.69;92.96;99951.97;503703;105;922582;-80
2022/11/22 06:30:21;;;;;;;12.14;8.36;;;;;;;12.69;93.00;99954.70;503701;105;922938;-81
2022/11/22 06:31:25;;;;;;;12.40;8.67;;;;;;;12.70;92.91;99956.37;503754;104;922568;-80
2022/11/22 06:32:33;;;;;;;13.42;8.62;;;;;;;12.70;92.89;99954.46;503579;104;923185;-79
2022/11/22 06:33:37;;;;;;;13.46;8.37;;;;;;;12.71;92.91;99953.39;505791;103;922633;-81
2022/11/22 06:34:40;;;;;;;12.79;8.04;;;;;;;12.71;92.76;99944.36;513462;103;922556;-79
2022/11/22 06:35:43;;;;;;;14.93;8.76;;;;;;;12.71;92.80;99947.09;510101;103;922473;-81
2022/11/22 06:36:46;;;;;;;14.73;8.37;;;;;;;12.72;92.68;99935.91;503736;105;922702;-81
2022/11/22 06:37:49;;;;;;;11.42;8.42;;;;;;;12.72;92.68;99930.44;503663;105;922376;-79
2022/11/22 06:38:51;;;;;;;11.06;7.97;;;;;;;12.73;92.62;99928.54;503673;105;922524;-79
2022/11/22 06:39:54;;;;;;;14.61;9.13;;;;;;;12.73;92.58;99928.54;503637;105;922483;-80
2022/11/22 06:41:06;;;;;;;16.60;8.08;;;;;;;12.74;92.50;99927.44;503627;105;922638;-81